sensor_id;sensor_type;location;lat;lon;timestamp;temperature;humidity
22416;DHT22;12204;50.600;4.608;2022-07-21T00:02:19;27.90;61.70
22416;DHT22;12204;50.600;4.608;2022-07-21T00:07:23;27.90;61.70
22416;DHT22;12204;50.600;4.608;2022-07-21T00:12:26;27.90;61.80
22416;DHT22;12204;50.600;4.608;2022-07-21T00:17:32;27.90;61.70
22416;DHT22;12204;50.600;4.608;2022-07-21T00:22:35;27.90;61.70
22416;DHT22;12204;50.600;4.608;2022-07-21T00:27:40;27.90;61.70
22416;DHT22;12204;50.600;4.608;2022-07-21T00:32:45;27.90;61.60
22416;DHT22;12204;50.600;4.608;2022-07-21T00:37:48;27.90;61.50
22416;DHT22;12204;50.600;4.608;2022-07-21T00:42:52;27.90;61.40
22416;DHT22;12204;50.600;4.608;2022-07-21T00:47:57;27.90;61.40
22416;DHT22;12204;50.600;4.608;2022-07-21T00:53:01;27.90;61.40
22416;DHT22;12204;50.600;4.608;2022-07-21T00:58:05;27.90;61.70
22416;DHT22;12204;50.600;4.608;2022-07-21T01:03:10;27.90;61.50
22416;DHT22;12204;50.600;4.608;2022-07-21T01:08:14;27.90;61.40
22416;DHT22;12204;50.600;4.608;2022-07-21T01:13:19;27.90;61.50
22416;DHT22;12204;50.600;4.608;2022-07-21T01:18:25;27.90;61.40
22416;DHT22;12204;50.600;4.608;2022-07-21T01:23:30;27.90;61.50
22416;DHT22;12204;50.600;4.608;2022-07-21T01:28:34;27.90;61.60
22416;DHT22;12204;50.600;4.608;2022-07-21T01:33:37;27.90;61.70
22416;DHT22;12204;50.600;4.608;2022-07-21T01:38:42;27.90;61.60
22416;DHT22;12204;50.600;4.608;2022-07-21T01:44:05;27.90;61.60
22416;DHT22;12204;50.600;4.608;2022-07-21T01:49:11;27.90;61.60
22416;DHT22;12204;50.600;4.608;2022-07-21T01:54:18;27.90;61.60
22416;DHT22;12204;50.600;4.608;2022-07-21T01:59:25;27.90;61.80
22416;DHT22;12204;50.600;4.608;2022-07-21T02:04:28;27.90;61.80
22416;DHT22;12204;50.600;4.608;2022-07-21T02:09:34;27.90;62.20
22416;DHT22;12204;50.600;4.608;2022-07-21T02:14:37;27.90;62.20
22416;DHT22;12204;50.600;4.608;2022-07-21T02:19:41;27.90;62.10
22416;DHT22;12204;50.600;4.608;2022-07-21T02:24:46;27.90;62.30
22416;DHT22;12204;50.600;4.608;2022-07-21T02:29:51;27.90;62.20
22416;DHT22;12204;50.600;4.608;2022-07-21T02:34:54;27.90;62.10
22416;DHT22;12204;50.600;4.608;2022-07-21T02:39:59;27.90;62.10
22416;DHT22;12204;50.600;4.608;2022-07-21T02:45:04;27.90;62.10
22416;DHT22;12204;50.600;4.608;2022-07-21T02:50:09;27.90;62.00
22416;DHT22;12204;50.600;4.608;2022-07-21T02:55:14;27.90;62.10
22416;DHT22;12204;50.600;4.608;2022-07-21T03:00:19;27.90;62.20
22416;DHT22;12204;50.600;4.608;2022-07-21T03:05:22;27.90;62.10
22416;DHT22;12204;50.600;4.608;2022-07-21T03:10:27;27.90;62.10
22416;DHT22;12204;50.600;4.608;2022-07-21T03:15:31;27.90;62.20
22416;DHT22;12204;50.600;4.608;2022-07-21T03:20:37;27.90;62.20
22416;DHT22;12204;50.600;4.608;2022-07-21T03:25:43;27.90;62.10
22416;DHT22;12204;50.600;4.608;2022-07-21T03:30:47;27.80;62.00
22416;DHT22;12204;50.600;4.608;2022-07-21T03:35:51;27.80;62.10
22416;DHT22;12204;50.600;4.608;2022-07-21T03:40:56;27.90;62.10
22416;DHT22;12204;50.600;4.608;2022-07-21T03:45:59;27.90;62.10
22416;DHT22;12204;50.600;4.608;2022-07-21T03:51:03;27.80;62.00
22416;DHT22;12204;50.600;4.608;2022-07-21T03:56:08;27.90;62.00
22416;DHT22;12204;50.600;4.608;2022-07-21T04:01:12;27.90;62.10
22416;DHT22;12204;50.600;4.608;2022-07-21T04:06:16;27.90;62.20
22416;DHT22;12204;50.600;4.608;2022-07-21T04:11:21;27.90;62.00
22416;DHT22;12204;50.600;4.608;2022-07-21T04:16:25;27.80;62.00
22416;DHT22;12204;50.600;4.608;2022-07-21T04:21:30;27.90;61.90
22416;DHT22;12204;50.600;4.608;2022-07-21T04:26:35;27.80;61.90
22416;DHT22;12204;50.600;4.608;2022-07-21T04:31:39;27.90;61.90
22416;DHT22;12204;50.600;4.608;2022-07-21T04:36:43;27.80;61.60
22416;DHT22;12204;50.600;4.608;2022-07-21T04:41:48;27.80;61.60
22416;DHT22;12204;50.600;4.608;2022-07-21T04:46:52;27.90;61.70
22416;DHT22;12204;50.600;4.608;2022-07-21T04:51:56;27.80;60.60
22416;DHT22;12204;50.600;4.608;2022-07-21T04:57:07;27.70;60.10
22416;DHT22;12204;50.600;4.608;2022-07-21T05:02:11;27.60;60.10
22416;DHT22;12204;50.600;4.608;2022-07-21T05:07:15;27.60;60.20
22416;DHT22;12204;50.600;4.608;2022-07-21T05:12:21;27.50;60.30
22416;DHT22;12204;50.600;4.608;2022-07-21T05:17:24;27.50;60.20
22416;DHT22;12204;50.600;4.608;2022-07-21T05:22:28;27.40;61.10
22416;DHT22;12204;50.600;4.608;2022-07-21T05:27:33;27.40;60.60
22416;DHT22;12204;50.600;4.608;2022-07-21T05:32:38;27.30;60.50
22416;DHT22;12204;50.600;4.608;2022-07-21T05:37:49;27.30;60.60
22416;DHT22;12204;50.600;4.608;2022-07-21T05:42:54;27.20;60.70
22416;DHT22;12204;50.600;4.608;2022-07-21T05:47:58;27.20;60.90
22416;DHT22;12204;50.600;4.608;2022-07-21T05:53:01;27.20;61.00
22416;DHT22;12204;50.600;4.608;2022-07-21T05:58:07;27.20;61.20
22416;DHT22;12204;50.600;4.608;2022-07-21T06:03:12;27.20;61.20
22416;DHT22;12204;50.600;4.608;2022-07-21T06:08:16;27.10;61.90
22416;DHT22;12204;50.600;4.608;2022-07-21T06:13:21;27.10;61.60
22416;DHT22;12204;50.600;4.608;2022-07-21T06:18:24;27.10;61.60
22416;DHT22;12204;50.600;4.608;2022-07-21T06:23:28;27.00;61.70
22416;DHT22;12204;50.600;4.608;2022-07-21T06:28:33;27.00;62.60
22416;DHT22;12204;50.600;4.608;2022-07-21T06:33:37;27.00;61.90
22416;DHT22;12204;50.600;4.608;2022-07-21T06:38:41;27.00;62.00
22416;DHT22;12204;50.600;4.608;2022-07-21T06:43:48;26.90;62.30
22416;DHT22;12204;50.600;4.608;2022-07-21T06:48:52;26.90;62.40
22416;DHT22;12204;50.600;4.608;2022-07-21T06:53:55;26.90;62.60
22416;DHT22;12204;50.600;4.608;2022-07-21T06:59:00;26.90;62.80
22416;DHT22;12204;50.600;4.608;2022-07-21T07:04:04;26.90;62.80
22416;DHT22;12204;50.600;4.608;2022-07-21T07:09:08;26.80;63.00
22416;DHT22;12204;50.600;4.608;2022-07-21T07:14:13;26.90;63.00
22416;DHT22;12204;50.600;4.608;2022-07-21T07:19:19;26.80;63.10
22416;DHT22;12204;50.600;4.608;2022-07-21T07:24:23;26.70;63.20
22416;DHT22;12204;50.600;4.608;2022-07-21T07:29:28;26.70;63.30
22416;DHT22;12204;50.600;4.608;2022-07-21T07:34:33;26.80;63.30
22416;DHT22;12204;50.600;4.608;2022-07-21T07:39:36;26.90;63.40
22416;DHT22;12204;50.600;4.608;2022-07-21T07:44:43;26.90;63.10
22416;DHT22;12204;50.600;4.608;2022-07-21T07:49:48;26.80;63.20
22416;DHT22;12204;50.600;4.608;2022-07-21T07:54:52;26.70;63.60
22416;DHT22;12204;50.600;4.608;2022-07-21T07:59:58;26.70;64.60
22416;DHT22;12204;50.600;4.608;2022-07-21T08:05:01;26.60;64.50
22416;DHT22;12204;50.600;4.608;2022-07-21T08:10:06;26.60;64.90
22416;DHT22;12204;50.600;4.608;2022-07-21T08:15:33;26.60;65.10
22416;DHT22;12204;50.600;4.608;2022-07-21T08:20:37;26.60;65.50
22416;DHT22;12204;50.600;4.608;2022-07-21T08:25:42;26.60;65.40
22416;DHT22;12204;50.600;4.608;2022-07-21T08:30:47;26.60;65.40
22416;DHT22;12204;50.600;4.608;2022-07-21T08:35:50;26.60;66.30
22416;DHT22;12204;50.600;4.608;2022-07-21T08:40:56;26.50;65.60
22416;DHT22;12204;50.600;4.608;2022-07-21T08:46:02;26.60;66.10
22416;DHT22;12204;50.600;4.608;2022-07-21T08:51:06;26.60;66.50
22416;DHT22;12204;50.600;4.608;2022-07-21T08:56:10;26.60;66.60
22416;DHT22;12204;50.600;4.608;2022-07-21T09:01:16;26.60;66.30
22416;DHT22;12204;50.600;4.608;2022-07-21T09:06:20;26.60;66.70
22416;DHT22;12204;50.600;4.608;2022-07-21T09:11:26;26.60;67.00
22416;DHT22;12204;50.600;4.608;2022-07-21T09:16:35;26.40;67.70
22416;DHT22;12204;50.600;4.608;2022-07-21T09:21:40;26.30;67.90
22416;DHT22;12204;50.600;4.608;2022-07-21T09:27:07;26.20;68.70
22416;DHT22;12204;50.600;4.608;2022-07-21T09:32:16;26.20;68.70
22416;DHT22;12204;50.600;4.608;2022-07-21T09:37:26;26.10;68.80
22416;DHT22;12204;50.600;4.608;2022-07-21T09:42:32;26.10;69.70
22416;DHT22;12204;50.600;4.608;2022-07-21T09:47:40;25.90;69.70
22416;DHT22;12204;50.600;4.608;2022-07-21T09:52:45;26.10;68.90
22416;DHT22;12204;50.600;4.608;2022-07-21T09:57:50;26.20;68.50
22416;DHT22;12204;50.600;4.608;2022-07-21T10:02:56;26.20;68.10
22416;DHT22;12204;50.600;4.608;2022-07-21T10:08:02;26.20;68.10
22416;DHT22;12204;50.600;4.608;2022-07-21T10:13:09;26.20;68.30
22416;DHT22;12204;50.600;4.608;2022-07-21T10:18:15;26.30;68.20
22416;DHT22;12204;50.600;4.608;2022-07-21T10:23:28;26.20;68.10
22416;DHT22;12204;50.600;4.608;2022-07-21T10:28:39;26.20;68.10
22416;DHT22;12204;50.600;4.608;2022-07-21T10:34:00;26.20;68.10
22416;DHT22;12204;50.600;4.608;2022-07-21T10:39:20;26.20;68.00
22416;DHT22;12204;50.600;4.608;2022-07-21T10:44:44;26.20;68.30
22416;DHT22;12204;50.600;4.608;2022-07-21T10:49:53;26.20;68.30
22416;DHT22;12204;50.600;4.608;2022-07-21T10:55:13;26.20;68.50
22416;DHT22;12204;50.600;4.608;2022-07-21T11:00:22;26.20;68.60
22416;DHT22;12204;50.600;4.608;2022-07-21T11:05:33;26.10;68.60
22416;DHT22;12204;50.600;4.608;2022-07-21T11:10:38;26.20;68.80
22416;DHT22;12204;50.600;4.608;2022-07-21T11:15:45;26.10;68.60
22416;DHT22;12204;50.600;4.608;2022-07-21T11:21:10;26.10;68.70
22416;DHT22;12204;50.600;4.608;2022-07-21T11:26:18;26.20;68.90
22416;DHT22;12204;50.600;4.608;2022-07-21T11:31:27;26.10;69.00
22416;DHT22;12204;50.600;4.608;2022-07-21T11:36:32;26.20;68.80
22416;DHT22;12204;50.600;4.608;2022-07-21T11:41:37;26.10;68.80
22416;DHT22;12204;50.600;4.608;2022-07-21T11:46:50;26.10;68.70
22416;DHT22;12204;50.600;4.608;2022-07-21T11:51:57;26.10;68.40
22416;DHT22;12204;50.600;4.608;2022-07-21T11:57:05;26.10;68.30
22416;DHT22;12204;50.600;4.608;2022-07-21T12:02:11;26.10;68.80
22416;DHT22;12204;50.600;4.608;2022-07-21T12:07:20;26.10;69.20
22416;DHT22;12204;50.600;4.608;2022-07-21T12:12:32;26.10;69.00
22416;DHT22;12204;50.600;4.608;2022-07-21T12:17:39;26.10;69.10
22416;DHT22;12204;50.600;4.608;2022-07-21T12:22:46;26.10;69.40
22416;DHT22;12204;50.600;4.608;2022-07-21T12:27:51;26.20;71.80
22416;DHT22;12204;50.600;4.608;2022-07-21T12:33:01;26.20;71.60
22416;DHT22;12204;50.600;4.608;2022-07-21T12:38:12;26.20;70.70
22416;DHT22;12204;50.600;4.608;2022-07-21T12:43:19;26.20;70.30
22416;DHT22;12204;50.600;4.608;2022-07-21T12:48:25;26.10;69.50
22416;DHT22;12204;50.600;4.608;2022-07-21T12:53:33;26.10;70.00
22416;DHT22;12204;50.600;4.608;2022-07-21T12:58:39;26.10;69.00
22416;DHT22;12204;50.600;4.608;2022-07-21T13:03:43;26.20;69.10
22416;DHT22;12204;50.600;4.608;2022-07-21T13:08:49;26.20;68.90
22416;DHT22;12204;50.600;4.608;2022-07-21T13:13:53;26.20;68.90
22416;DHT22;12204;50.600;4.608;2022-07-21T13:18:59;26.20;68.80
22416;DHT22;12204;50.600;4.608;2022-07-21T13:24:05;26.30;70.00
22416;DHT22;12204;50.600;4.608;2022-07-21T13:29:09;26.40;70.20
22416;DHT22;12204;50.600;4.608;2022-07-21T13:34:13;26.40;70.30
22416;DHT22;12204;50.600;4.608;2022-07-21T13:39:19;26.40;69.20
22416;DHT22;12204;50.600;4.608;2022-07-21T13:44:44;26.40;68.90
22416;DHT22;12204;50.600;4.608;2022-07-21T13:49:48;26.40;68.40
22416;DHT22;12204;50.600;4.608;2022-07-21T13:54:53;26.30;67.70
22416;DHT22;12204;50.600;4.608;2022-07-21T13:59:57;26.30;67.10
22416;DHT22;12204;50.600;4.608;2022-07-21T14:05:01;26.20;67.00
22416;DHT22;12204;50.600;4.608;2022-07-21T14:10:08;26.20;66.90
22416;DHT22;12204;50.600;4.608;2022-07-21T14:15:12;26.20;66.70
22416;DHT22;12204;50.600;4.608;2022-07-21T14:20:16;26.20;66.50
22416;DHT22;12204;50.600;4.608;2022-07-21T14:25:28;26.20;66.10
22416;DHT22;12204;50.600;4.608;2022-07-21T14:30:32;26.20;66.10
22416;DHT22;12204;50.600;4.608;2022-07-21T14:35:36;26.20;66.00
22416;DHT22;12204;50.600;4.608;2022-07-21T14:40:41;26.20;65.90
22416;DHT22;12204;50.600;4.608;2022-07-21T14:45:45;26.10;65.90
22416;DHT22;12204;50.600;4.608;2022-07-21T14:50:49;26.10;66.00
22416;DHT22;12204;50.600;4.608;2022-07-21T14:55:54;26.10;65.80
22416;DHT22;12204;50.600;4.608;2022-07-21T15:00:58;26.10;66.00
22416;DHT22;12204;50.600;4.608;2022-07-21T15:06:01;26.10;65.90
22416;DHT22;12204;50.600;4.608;2022-07-21T15:11:10;26.20;66.00
22416;DHT22;12204;50.600;4.608;2022-07-21T15:16:13;26.30;65.80
22416;DHT22;12204;50.600;4.608;2022-07-21T15:21:17;26.30;65.80
22416;DHT22;12204;50.600;4.608;2022-07-21T15:26:22;26.30;65.70
22416;DHT22;12204;50.600;4.608;2022-07-21T15:31:29;26.30;65.50
22416;DHT22;12204;50.600;4.608;2022-07-21T15:36:34;26.40;65.50
22416;DHT22;12204;50.600;4.608;2022-07-21T15:41:39;26.40;65.60
22416;DHT22;12204;50.600;4.608;2022-07-21T15:46:55;26.40;65.50
22416;DHT22;12204;50.600;4.608;2022-07-21T15:51:59;26.40;65.40
22416;DHT22;12204;50.600;4.608;2022-07-21T15:57:05;26.40;65.20
22416;DHT22;12204;50.600;4.608;2022-07-21T16:02:10;26.40;65.40
22416;DHT22;12204;50.600;4.608;2022-07-21T16:07:16;26.40;65.30
22416;DHT22;12204;50.600;4.608;2022-07-21T16:12:21;26.40;65.10
22416;DHT22;12204;50.600;4.608;2022-07-21T16:17:24;26.40;65.20
22416;DHT22;12204;50.600;4.608;2022-07-21T16:22:28;26.50;65.10
22416;DHT22;12204;50.600;4.608;2022-07-21T16:27:33;26.50;65.00
22416;DHT22;12204;50.600;4.608;2022-07-21T16:32:37;26.50;64.90
22416;DHT22;12204;50.600;4.608;2022-07-21T16:37:42;26.50;64.90
22416;DHT22;12204;50.600;4.608;2022-07-21T16:42:50;26.50;64.70
22416;DHT22;12204;50.600;4.608;2022-07-21T16:47:54;26.50;64.70
22416;DHT22;12204;50.600;4.608;2022-07-21T16:52:58;26.50;64.40
22416;DHT22;12204;50.600;4.608;2022-07-21T16:58:03;26.50;64.30
22416;DHT22;12204;50.600;4.608;2022-07-21T17:03:07;26.50;64.10
22416;DHT22;12204;50.600;4.608;2022-07-21T17:08:10;26.50;64.00
22416;DHT22;12204;50.600;4.608;2022-07-21T17:13:16;26.50;64.10
22416;DHT22;12204;50.600;4.608;2022-07-21T17:18:19;26.50;64.00
22416;DHT22;12204;50.600;4.608;2022-07-21T17:23:23;26.50;63.90
22416;DHT22;12204;50.600;4.608;2022-07-21T17:28:28;26.50;63.80
22416;DHT22;12204;50.600;4.608;2022-07-21T17:33:32;26.50;63.80
22416;DHT22;12204;50.600;4.608;2022-07-21T17:38:36;26.50;63.60
22416;DHT22;12204;50.600;4.608;2022-07-21T17:43:41;26.50;63.50
22416;DHT22;12204;50.600;4.608;2022-07-21T17:48:45;26.50;63.40
22416;DHT22;12204;50.600;4.608;2022-07-21T17:53:49;26.40;63.20
22416;DHT22;12204;50.600;4.608;2022-07-21T17:58:54;26.50;63.30
22416;DHT22;12204;50.600;4.608;2022-07-21T18:03:59;26.50;63.30
22416;DHT22;12204;50.600;4.608;2022-07-21T18:09:03;26.50;63.80
22416;DHT22;12204;50.600;4.608;2022-07-21T18:14:08;26.50;63.70
22416;DHT22;12204;50.600;4.608;2022-07-21T18:19:12;26.50;62.80
22416;DHT22;12204;50.600;4.608;2022-07-21T18:24:16;26.50;62.80
22416;DHT22;12204;50.600;4.608;2022-07-21T18:29:21;26.50;62.60
22416;DHT22;12204;50.600;4.608;2022-07-21T18:34:26;26.50;62.50
22416;DHT22;12204;50.600;4.608;2022-07-21T18:39:30;26.50;62.40
22416;DHT22;12204;50.600;4.608;2022-07-21T18:44:35;26.40;62.00
22416;DHT22;12204;50.600;4.608;2022-07-21T18:49:39;26.40;62.00
22416;DHT22;12204;50.600;4.608;2022-07-21T18:54:44;26.40;61.90
22416;DHT22;12204;50.600;4.608;2022-07-21T18:59:49;26.40;61.90
22416;DHT22;12204;50.600;4.608;2022-07-21T19:04:53;26.40;61.90
22416;DHT22;12204;50.600;4.608;2022-07-21T19:09:57;26.40;61.90
22416;DHT22;12204;50.600;4.608;2022-07-21T19:15:03;26.40;61.80
22416;DHT22;12204;50.600;4.608;2022-07-21T19:20:17;26.40;61.90
22416;DHT22;12204;50.600;4.608;2022-07-21T19:25:23;26.40;61.90
22416;DHT22;12204;50.600;4.608;2022-07-21T19:30:29;26.40;62.00
22416;DHT22;12204;50.600;4.608;2022-07-21T19:35:33;26.40;61.90
22416;DHT22;12204;50.600;4.608;2022-07-21T19:40:37;26.40;61.90
22416;DHT22;12204;50.600;4.608;2022-07-21T19:45:42;26.40;62.10
22416;DHT22;12204;50.600;4.608;2022-07-21T19:50:46;26.40;62.00
22416;DHT22;12204;50.600;4.608;2022-07-21T19:55:50;26.40;62.10
22416;DHT22;12204;50.600;4.608;2022-07-21T20:00:56;26.40;62.10
22416;DHT22;12204;50.600;4.608;2022-07-21T20:06:00;26.40;62.20
22416;DHT22;12204;50.600;4.608;2022-07-21T20:11:03;26.40;62.20
22416;DHT22;12204;50.600;4.608;2022-07-21T20:16:09;26.40;62.30
22416;DHT22;12204;50.600;4.608;2022-07-21T20:21:13;26.40;62.40
22416;DHT22;12204;50.600;4.608;2022-07-21T20:26:17;26.50;62.60
22416;DHT22;12204;50.600;4.608;2022-07-21T20:31:28;26.50;62.70
22416;DHT22;12204;50.600;4.608;2022-07-21T20:36:32;26.50;62.90
22416;DHT22;12204;50.600;4.608;2022-07-21T20:41:36;26.50;63.10
22416;DHT22;12204;50.600;4.608;2022-07-21T20:46:41;26.50;63.40
22416;DHT22;12204;50.600;4.608;2022-07-21T20:51:45;26.50;63.70
22416;DHT22;12204;50.600;4.608;2022-07-21T20:56:48;26.50;63.90
22416;DHT22;12204;50.600;4.608;2022-07-21T21:02:13;26.50;64.00
22416;DHT22;12204;50.600;4.608;2022-07-21T21:07:17;26.50;64.10
22416;DHT22;12204;50.600;4.608;2022-07-21T21:12:21;26.50;64.30
22416;DHT22;12204;50.600;4.608;2022-07-21T21:17:26;26.50;64.40
22416;DHT22;12204;50.600;4.608;2022-07-21T21:22:30;26.50;64.50
22416;DHT22;12204;50.600;4.608;2022-07-21T21:27:34;26.50;64.60
22416;DHT22;12204;50.600;4.608;2022-07-21T21:32:40;26.50;64.90
22416;DHT22;12204;50.600;4.608;2022-07-21T21:37:43;26.50;64.90
22416;DHT22;12204;50.600;4.608;2022-07-21T21:42:47;26.50;65.00
22416;DHT22;12204;50.600;4.608;2022-07-21T21:47:52;26.50;65.50
22416;DHT22;12204;50.600;4.608;2022-07-21T21:52:56;26.60;65.80
22416;DHT22;12204;50.600;4.608;2022-07-21T21:57:59;26.60;66.00
22416;DHT22;12204;50.600;4.608;2022-07-21T22:03:05;26.50;66.00
22416;DHT22;12204;50.600;4.608;2022-07-21T22:08:09;26.50;65.60
22416;DHT22;12204;50.600;4.608;2022-07-21T22:13:12;26.50;65.10
22416;DHT22;12204;50.600;4.608;2022-07-21T22:18:18;26.50;64.80
22416;DHT22;12204;50.600;4.608;2022-07-21T22:23:21;26.50;64.40
22416;DHT22;12204;50.600;4.608;2022-07-21T22:28:25;26.50;64.00
22416;DHT22;12204;50.600;4.608;2022-07-21T22:33:30;26.50;63.70
22416;DHT22;12204;50.600;4.608;2022-07-21T22:38:35;26.40;63.30
22416;DHT22;12204;50.600;4.608;2022-07-21T22:43:38;26.40;63.10
22416;DHT22;12204;50.600;4.608;2022-07-21T22:48:43;26.40;62.90
22416;DHT22;12204;50.600;4.608;2022-07-21T22:53:47;26.40;62.60
22416;DHT22;12204;50.600;4.608;2022-07-21T22:58:51;26.40;62.50
22416;DHT22;12204;50.600;4.608;2022-07-21T23:03:57;26.40;62.30
22416;DHT22;12204;50.600;4.608;2022-07-21T23:09:00;26.40;62.10
22416;DHT22;12204;50.600;4.608;2022-07-21T23:14:04;26.40;61.90
22416;DHT22;12204;50.600;4.608;2022-07-21T23:19:09;26.40;61.90
22416;DHT22;12204;50.600;4.608;2022-07-21T23:24:13;26.40;62.60
22416;DHT22;12204;50.600;4.608;2022-07-21T23:29:16;26.40;61.70
22416;DHT22;12204;50.600;4.608;2022-07-21T23:34:21;26.40;61.60
22416;DHT22;12204;50.600;4.608;2022-07-21T23:39:26;26.40;61.30
22416;DHT22;12204;50.600;4.608;2022-07-21T23:44:29;26.40;61.30
22416;DHT22;12204;50.600;4.608;2022-07-21T23:49:34;26.40;61.10
22416;DHT22;12204;50.600;4.608;2022-07-21T23:54:38;26.40;61.00
22416;DHT22;12204;50.600;4.608;2022-07-21T23:59:42;26.40;61.20
